Time;durP1;ratioP1;P1;durP2;ratioP2;P2;SDS_P1;SDS_P2;PMS_P1;PMS_P2;Temp;Humidity;BMP_temperature;BMP_pressure;BME280_temperature;BME280_humidity;BME280_pressure;Samples;Min_cycle;Max_cycle;Signal;HPM_P1;HPM_P2
2023/08/14 00:00:57;;;;;;;1.33;0.90;;;;;;;-145.14;100.00;70583.66;5009628;28;20637;-74
2023/08/14 00:03:22;;;;;;;3.40;1.27;;;;;;;-145.14;100.00;70583.66;5007919;28;20191;-74
2023/08/14 00:05:48;;;;;;;2.80;1.43;;;;;;;-145.14;100.00;70583.66;5005595;28;20272;-73
2023/08/14 00:08:13;;;;;;;3.20;1.50;;;;;;;-145.14;100.00;70583.66;5005441;28;20244;-73
2023/08/14 00:10:39;;;;;;;3.67;1.60;;;;;;;-145.14;100.00;70583.66;5010853;28;20755;-74
2023/08/14 00:13:04;;;;;;;2.83;1.40;;;;;;;-145.14;100.00;70583.66;5005862;28;20613;-73
2023/08/14 00:15:30;;;;;;;3.80;1.80;;;;;;;-145.14;100.00;70583.66;5007890;28;20296;-73
2023/08/14 00:17:55;;;;;;;2.50;1.20;;;;;;;-145.14;100.00;70583.66;5007491;28;20247;-73
2023/08/14 00:20:21;;;;;;;2.50;1.10;;;;;;;-145.14;100.00;70583.66;5007197;28;20197;-73
2023/08/14 00:22:46;;;;;;;3.07;1.40;;;;;;;-145.14;100.00;70583.66;5007084;28;20204;-73
2023/08/14 00:25:12;;;;;;;2.00;1.13;;;;;;;-145.14;100.00;70583.66;5005110;28;20196;-73
2023/08/14 00:27:37;;;;;;;2.90;1.33;;;;;;;-145.14;100.00;70583.66;5007104;28;20221;-73
2023/08/14 00:30:03;;;;;;;2.70;1.20;;;;;;;-145.14;100.00;70583.66;5010235;28;20195;-73
2023/08/14 00:32:28;;;;;;;2.95;1.40;;;;;;;-145.14;100.00;70583.66;5009897;28;20193;-74
2023/08/14 00:34:54;;;;;;;1.90;1.27;;;;;;;-145.14;100.00;70583.66;5009433;28;20501;-74
2023/08/14 00:37:22;;;;;;;3.30;1.60;;;;;;;-145.14;100.00;70583.66;5001220;28;20212;-74
2023/08/14 00:39:48;;;;;;;2.30;1.45;;;;;;;-145.14;100.00;70583.66;5015240;28;20185;-73
2023/08/14 00:42:14;;;;;;;4.20;1.30;;;;;;;-145.14;100.00;70583.66;5006861;28;20433;-75
2023/08/14 00:44:39;;;;;;;2.13;1.07;;;;;;;-145.14;100.00;70583.66;5005006;28;20185;-74
2023/08/14 00:47:06;;;;;;;2.90;1.27;;;;;;;-145.14;100.00;70583.66;5009621;28;20211;-74
2023/08/14 00:49:32;;;;;;;2.10;1.30;;;;;;;-145.14;100.00;70583.66;5016589;28;21239;-74
2023/08/14 00:51:57;;;;;;;1.80;1.10;;;;;;;-145.14;100.00;70583.66;5014025;28;20499;-74
2023/08/14 00:54:23;;;;;;;4.55;1.30;;;;;;;-145.14;100.00;70583.66;5012604;28;20661;-74
2023/08/14 00:56:49;;;;;;;2.70;1.25;;;;;;;-145.14;100.00;70583.66;5008385;28;20295;-75
2023/08/14 00:59:14;;;;;;;2.80;1.70;;;;;;;-145.14;100.00;70583.66;5008194;28;20175;-75
2023/08/14 01:01:39;;;;;;;2.70;1.25;;;;;;;-145.14;100.00;70583.66;5007075;28;20178;-75
2023/08/14 01:04:05;;;;;;;5.70;1.60;;;;;;;-145.14;100.00;70583.66;5006005;28;20187;-75
2023/08/14 01:06:30;;;;;;;4.57;1.50;;;;;;;-145.14;100.00;70583.66;5007481;28;20224;-75
2023/08/14 01:08:56;;;;;;;3.80;1.50;;;;;;;-145.14;100.00;70583.66;5005752;28;20318;-74
2023/08/14 01:11:28;;;;;;;2.55;1.20;;;;;;;-145.14;100.00;70583.66;5006261;28;20196;-74
2023/08/14 01:14:04;;;;;;;3.55;1.10;;;;;;;-145.14;100.00;70583.66;5006365;28;20207;-74
2023/08/14 01:16:38;;;;;;;3.93;1.33;;;;;;;-145.14;100.00;70583.66;5004571;28;20526;-74
2023/08/14 01:19:09;;;;;;;2.33;1.60;;;;;;;-145.14;100.00;70583.66;5004295;28;20951;-74
2023/08/14 01:21:50;;;;;;;2.70;1.20;;;;;;;-145.14;100.00;70583.66;5020626;28;20452;-74
2023/08/14 01:24:44;;;;;;;2.70;1.20;;;;;;;-145.14;100.00;70583.66;5005525;28;20488;-74
2023/08/14 01:27:10;;;;;;;2.65;1.30;;;;;;;-145.14;100.00;70583.66;4992143;28;20506;-74
2023/08/14 01:29:35;;;;;;;2.20;1.40;;;;;;;-145.14;100.00;70583.66;5008640;28;20944;-74
2023/08/14 01:32:01;;;;;;;2.15;1.35;;;;;;;-145.14;100.00;70583.66;5006036;28;20209;-74
2023/08/14 01:34:26;;;;;;;4.85;1.90;;;;;;;-145.14;100.00;70583.66;5005704;28;20204;-74
2023/08/14 01:37:19;;;;;;;3.40;1.47;;;;;;;-145.14;100.00;70583.66;5004339;28;20274;-74
2023/08/14 01:39:50;;;;;;;3.30;1.37;;;;;;;-145.14;100.00;70583.66;5006428;28;20200;-74
2023/08/14 01:42:27;;;;;;;2.55;1.20;;;;;;;-145.14;100.00;70583.66;5006548;28;20569;-74
2023/08/14 01:44:59;;;;;;;2.27;1.23;;;;;;;-145.14;100.00;70583.66;5006736;28;20505;-74
2023/08/14 01:47:27;;;;;;;3.03;1.50;;;;;;;-145.14;100.00;70583.66;5004850;28;20436;-74
2023/08/14 01:49:55;;;;;;;4.45;1.80;;;;;;;-145.14;100.00;70583.66;5007645;28;20473;-74
2023/08/14 01:52:21;;;;;;;2.97;1.30;;;;;;;-145.14;100.00;70583.66;5007787;28;20444;-74
2023/08/14 01:54:46;;;;;;;2.90;1.50;;;;;;;-145.14;100.00;70583.66;5010260;28;20444;-74
2023/08/14 01:57:12;;;;;;;2.30;1.10;;;;;;;-145.14;100.00;70583.66;5008298;28;20254;-74
2023/08/14 01:59:43;;;;;;;3.60;1.30;;;;;;;-145.14;100.00;70583.66;5010682;28;20221;-74
2023/08/14 02:02:10;;;;;;;3.13;1.50;;;;;;;-145.14;100.00;70583.66;5007356;28;20185;-74
2023/08/14 02:04:35;;;;;;;3.50;1.63;;;;;;;-145.14;100.00;70583.66;5014297;28;20496;-74
2023/08/14 02:07:01;;;;;;;3.20;1.63;;;;;;;-145.14;100.00;70583.66;5004442;28;20471;-73
2023/08/14 02:09:26;;;;;;;2.90;1.80;;;;;;;-145.14;100.00;70583.66;5009752;28;20195;-74
2023/08/14 02:11:52;;;;;;;3.20;1.80;;;;;;;-145.14;100.00;70583.66;5008169;28;20279;-74
2023/08/14 02:14:17;;;;;;;3.93;1.80;;;;;;;-145.14;100.00;70583.66;5008906;28;20612;-74
2023/08/14 02:16:42;;;;;;;4.00;1.93;;;;;;;-145.14;100.00;70583.66;5003963;28;20234;-73
2023/08/14 02:19:08;;;;;;;3.60;2.00;;;;;;;-145.14;100.00;70583.66;5006757;28;20332;-73
2023/08/14 02:21:33;;;;;;;3.50;2.00;;;;;;;-145.14;100.00;70583.66;5008726;28;20189;-73
2023/08/14 02:23:58;;;;;;;3.60;1.73;;;;;;;-145.14;100.00;70583.66;5006644;28;20193;-74
2023/08/14 02:26:24;;;;;;;2.87;1.50;;;;;;;-145.14;100.00;70583.66;5006639;28;20236;-73
2023/08/14 02:28:49;;;;;;;4.50;1.80;;;;;;;-145.14;100.00;70583.66;5011205;28;20340;-73
2023/08/14 02:31:15;;;;;;;3.50;2.17;;;;;;;-145.14;100.00;70583.66;5008254;28;20280;-73
2023/08/14 02:33:40;;;;;;;3.00;1.93;;;;;;;-145.14;100.00;70583.66;5007773;28;20303;-73
2023/08/14 02:36:06;;;;;;;2.97;1.70;;;;;;;-145.14;100.00;70583.66;5007310;28;20192;-73
2023/08/14 02:38:31;;;;;;;3.35;1.80;;;;;;;-145.14;100.00;70583.66;5010497;28;20180;-73
2023/08/14 02:40:56;;;;;;;4.07;2.27;;;;;;;-145.14;100.00;70583.66;5008554;28;20193;-73
2023/08/14 02:43:22;;;;;;;2.60;1.50;;;;;;;-145.14;100.00;70583.66;5008753;28;20193;-73
2023/08/14 02:45:47;;;;;;;3.80;2.10;;;;;;;-145.14;100.00;70583.66;5012952;28;20185;-73
2023/08/14 02:48:13;;;;;;;2.97;1.57;;;;;;;-145.14;100.00;70583.66;5010399;28;20239;-73
2023/08/14 02:50:39;;;;;;;3.00;1.90;;;;;;;-145.14;100.00;70583.66;5010368;28;20252;-72
2023/08/14 02:53:04;;;;;;;3.35;2.05;;;;;;;-145.14;100.00;70583.66;5011725;28;20193;-73
2023/08/14 02:55:30;;;;;;;2.80;1.45;;;;;;;-145.14;100.00;70583.66;5010755;28;20544;-73
2023/08/14 02:57:55;;;;;;;3.43;2.43;;;;;;;-145.14;100.00;70583.66;5013381;28;20579;-73
2023/08/14 03:00:21;;;;;;;4.13;2.30;;;;;;;-145.14;100.00;70583.66;5013831;28;20200;-73
2023/08/14 03:02:47;;;;;;;3.30;2.20;;;;;;;-145.14;100.00;70583.66;5013958;28;20191;-73
2023/08/14 03:05:13;;;;;;;4.35;2.10;;;;;;;-145.14;100.00;70583.66;5014565;28;20826;-73
2023/08/14 03:07:38;;;;;;;3.83;2.30;;;;;;;-145.14;100.00;70583.66;5017036;28;20275;-73
2023/08/14 03:10:05;;;;;;;4.60;2.80;;;;;;;-145.14;100.00;70583.66;5011950;28;20203;-73
2023/08/14 03:12:30;;;;;;;4.67;3.00;;;;;;;-145.14;100.00;70583.66;5009652;28;20652;-73
2023/08/14 03:14:56;;;;;;;3.60;2.63;;;;;;;-145.14;100.00;70583.66;5010098;28;20448;-73
2023/08/14 03:17:21;;;;;;;4.20;2.57;;;;;;;-145.14;100.00;70583.66;5008677;28;20235;-73
2023/08/14 03:19:47;;;;;;;3.53;2.13;;;;;;;-145.14;100.00;70583.66;5006131;28;20390;-74
2023/08/14 03:22:12;;;;;;;3.93;2.53;;;;;;;-145.14;100.00;70583.66;5011348;28;20247;-73
2023/08/14 03:24:37;;;;;;;3.30;2.20;;;;;;;-145.14;100.00;70583.66;5014774;28;20193;-74
2023/08/14 03:27:03;;;;;;;6.03;2.60;;;;;;;-145.14;100.00;70583.66;5007202;28;20252;-74
2023/08/14 03:29:28;;;;;;;3.60;2.23;;;;;;;-145.14;100.00;70583.66;5010796;28;23968;-74
2023/08/14 03:31:54;;;;;;;6.03;3.20;;;;;;;-145.14;100.00;70583.66;5010783;28;20622;-74
2023/08/14 03:34:19;;;;;;;3.30;2.20;;;;;;;-145.14;100.00;70583.66;5011963;28;20217;-73
2023/08/14 03:36:45;;;;;;;4.10;2.43;;;;;;;-145.14;100.00;70583.66;5007157;28;20727;-73
2023/08/14 03:39:10;;;;;;;4.03;2.40;;;;;;;-145.14;100.00;70583.66;5007348;28;20595;-74
2023/08/14 03:41:35;;;;;;;2.90;2.10;;;;;;;-145.14;100.00;70583.66;5009149;28;20215;-74
2023/08/14 03:44:02;;;;;;;3.50;2.20;;;;;;;-145.14;100.00;70583.66;5007661;28;20193;-74
2023/08/14 03:46:27;;;;;;;5.57;2.83;;;;;;;-145.14;100.00;70583.66;5017646;28;20201;-74
2023/08/14 03:48:53;;;;;;;3.00;2.20;;;;;;;-145.14;100.00;70583.66;5010578;28;21062;-74
2023/08/14 03:51:18;;;;;;;4.87;2.50;;;;;;;-145.14;100.00;70583.66;5007664;28;20192;-73
2023/08/14 03:53:43;;;;;;;3.10;2.20;;;;;;;-145.14;100.00;70583.66;5009490;28;20214;-74
2023/08/14 03:56:09;;;;;;;3.30;2.33;;;;;;;-145.14;100.00;70583.66;5010441;28;20791;-73
2023/08/14 03:58:34;;;;;;;3.83;2.00;;;;;;;-145.14;100.00;70583.66;5006253;28;24417;-73
2023/08/14 04:01:00;;;;;;;4.17;3.40;;;;;;;-145.14;100.00;70583.66;5008424;28;20547;-74
2023/08/14 04:03:25;;;;;;;3.37;2.17;;;;;;;-145.14;100.00;70583.66;5008405;28;20192;-74
2023/08/14 04:05:56;;;;;;;2.90;2.37;;;;;;;-145.14;100.00;70583.66;5012516;28;20189;-73
2023/08/14 04:08:21;;;;;;;3.73;2.40;;;;;;;-145.14;100.00;70583.66;5011055;28;20211;-74
2023/08/14 04:10:53;;;;;;;3.40;2.60;;;;;;;-145.14;100.00;70583.66;5005997;28;20446;-73
2023/08/14 04:13:19;;;;;;;4.33;2.37;;;;;;;-145.14;100.00;70583.66;5014367;28;21256;-73
2023/08/14 04:15:44;;;;;;;3.87;2.77;;;;;;;-145.14;100.00;70583.66;5008527;28;20446;-73
2023/08/14 04:18:10;;;;;;;3.57;2.30;;;;;;;-145.14;100.00;70583.66;5008092;28;20236;-73
2023/08/14 04:20:35;;;;;;;3.60;2.70;;;;;;;-145.14;100.00;70583.66;5006553;28;20536;-74
2023/08/14 04:23:01;;;;;;;6.43;2.97;;;;;;;-145.14;100.00;70583.66;5010864;28;20634;-74
2023/08/14 04:25:28;;;;;;;4.30;2.50;;;;;;;-145.14;100.00;70583.66;5008146;28;20331;-73
2023/08/14 04:27:53;;;;;;;3.37;2.40;;;;;;;-145.14;100.00;70583.66;5016432;28;21209;-73
2023/08/14 04:30:19;;;;;;;4.00;2.53;;;;;;;-145.14;100.00;70583.66;5009399;28;20539;-73
2023/08/14 04:32:44;;;;;;;4.30;2.67;;;;;;;-145.14;100.00;70583.66;5008856;28;20250;-73
2023/08/14 04:35:10;;;;;;;4.07;3.10;;;;;;;-145.14;100.00;70583.66;5006384;28;20227;-74
2023/08/14 04:37:36;;;;;;;5.90;3.33;;;;;;;-145.14;100.00;70583.66;5008658;28;20212;-73
2023/08/14 04:40:01;;;;;;;3.20;2.60;;;;;;;-145.14;100.00;70583.66;5007707;28;20193;-74
2023/08/14 04:42:26;;;;;;;4.10;3.07;;;;;;;-145.14;100.00;70583.66;5006969;28;20204;-74
2023/08/14 04:44:52;;;;;;;4.57;3.20;;;;;;;-145.14;100.00;70583.66;5006862;28;20291;-74
2023/08/14 04:47:17;;;;;;;3.90;3.10;;;;;;;-145.14;100.00;70583.66;5012148;28;20291;-73
2023/08/14 04:49:43;;;;;;;6.90;3.53;;;;;;;-145.14;100.00;70583.66;5017954;28;20261;-73
2023/08/14 04:52:08;;;;;;;5.43;3.67;;;;;;;-145.14;100.00;70583.66;5016016;28;20699;-73
2023/08/14 04:54:34;;;;;;;3.40;2.70;;;;;;;-145.14;100.00;70583.66;5022172;28;20196;-74
2023/08/14 04:57:00;;;;;;;6.30;2.97;;;;;;;-145.14;100.00;70583.66;5008219;28;20212;-74
2023/08/14 04:59:25;;;;;;;3.67;2.80;;;;;;;-145.14;100.00;70583.66;5011387;28;20451;-74
2023/08/14 05:01:51;;;;;;;6.00;3.20;;;;;;;-145.14;100.00;70583.66;5005038;28;20233;-74
2023/08/14 05:04:16;;;;;;;4.37;3.30;;;;;;;-145.14;100.00;70583.66;5003496;28;20637;-74
2023/08/14 05:06:41;;;;;;;4.30;2.90;;;;;;;-145.14;100.00;70583.66;5006800;28;20219;-74
2023/08/14 05:09:07;;;;;;;4.63;3.50;;;;;;;-145.14;100.00;70583.66;5006842;28;20213;-73
2023/08/14 05:11:32;;;;;;;5.10;3.20;;;;;;;-145.14;100.00;70583.66;5008269;28;20192;-73
2023/08/14 05:13:58;;;;;;;4.73;3.10;;;;;;;-145.14;100.00;70583.66;5010370;28;20189;-74
2023/08/14 05:16:23;;;;;;;3.87;3.00;;;;;;;-145.14;100.00;70583.66;5008152;28;20212;-74
2023/08/14 05:18:49;;;;;;;3.77;2.90;;;;;;;-145.14;100.00;70583.66;5011069;28;20189;-74
2023/08/14 05:21:14;;;;;;;5.53;3.40;;;;;;;-145.14;100.00;70583.66;5009545;28;20189;-74
2023/08/14 05:23:39;;;;;;;4.17;2.70;;;;;;;-145.14;100.00;70583.66;5019075;28;20246;-73
2023/08/14 05:26:05;;;;;;;4.20;2.87;;;;;;;-145.14;100.00;70583.66;5014575;28;20192;-74
2023/08/14 05:28:30;;;;;;;3.87;2.53;;;;;;;-145.14;100.00;70583.66;5013092;28;20725;-74
2023/08/14 05:30:56;;;;;;;6.27;3.40;;;;;;;-145.14;100.00;70583.66;5008171;28;20192;-73
2023/08/14 05:33:21;;;;;;;4.80;3.33;;;;;;;-145.14;100.00;70583.66;5016568;28;20188;-73
2023/08/14 05:35:49;;;;;;;4.40;2.90;;;;;;;-145.14;100.00;70583.66;5010427;28;20181;-73
2023/08/14 05:38:15;;;;;;;5.07;2.97;;;;;;;-145.14;100.00;70583.66;5008948;28;20201;-73
2023/08/14 05:40:40;;;;;;;4.37;2.80;;;;;;;-145.14;100.00;70583.66;5013250;28;20825;-73
2023/08/14 05:43:08;;;;;;;4.37;2.90;;;;;;;-145.14;100.00;70583.66;5007102;28;20482;-73
2023/08/14 05:45:41;;;;;;;3.60;2.87;;;;;;;-145.14;100.00;70583.66;5007648;28;20211;-73
2023/08/14 05:48:07;;;;;;;5.40;2.73;;;;;;;-145.14;100.00;70583.66;5005934;28;20839;-73
2023/08/14 05:50:33;;;;;;;4.47;2.63;;;;;;;-145.14;100.00;70583.66;5012680;28;20436;-73
2023/08/14 05:53:03;;;;;;;4.20;2.80;;;;;;;-145.14;100.00;70583.66;5009143;28;20212;-72
2023/08/14 05:55:30;;;;;;;5.17;2.77;;;;;;;-145.14;100.00;70583.66;5007833;28;21030;-73
2023/08/14 05:57:56;;;;;;;3.63;2.60;;;;;;;-145.14;100.00;70583.66;5011029;28;20707;-73
2023/08/14 06:00:22;;;;;;;3.10;2.23;;;;;;;-145.14;100.00;70583.66;5013091;28;21979;-73
2023/08/14 06:02:47;;;;;;;4.03;2.30;;;;;;;-145.14;100.00;70583.66;5008516;28;20202;-73
2023/08/14 06:05:13;;;;;;;4.30;2.60;;;;;;;-145.14;100.00;70583.66;5010642;28;20443;-72
2023/08/14 06:07:39;;;;;;;4.50;2.90;;;;;;;-145.14;100.00;70583.66;5009954;28;21038;-73
2023/08/14 06:10:05;;;;;;;4.70;2.53;;;;;;;-145.14;100.00;70583.66;5008243;28;20300;-72
2023/08/14 06:12:31;;;;;;;8.50;3.17;;;;;;;-145.14;100.00;70583.66;5009400;28;20196;-72
2023/08/14 06:14:57;;;;;;;4.97;2.97;;;;;;;-145.14;100.00;70583.66;5013203;28;21083;-73
2023/08/14 06:17:22;;;;;;;5.50;3.63;;;;;;;-145.14;100.00;70583.66;5007163;28;20447;-72
2023/08/14 06:19:48;;;;;;;5.90;2.80;;;;;;;-145.14;100.00;70583.66;5010575;28;20608;-72
2023/08/14 06:22:13;;;;;;;5.20;3.00;;;;;;;-145.14;100.00;70583.66;5007074;28;20654;-72
2023/08/14 06:24:38;;;;;;;5.17;2.53;;;;;;;-145.14;100.00;70583.66;5013090;28;20216;-72
2023/08/14 06:27:04;;;;;;;4.77;2.83;;;;;;;-145.14;100.00;70583.66;5011600;28;20622;-72
2023/08/14 06:29:30;;;;;;;5.43;3.60;;;;;;;-145.14;100.00;70583.66;5012159;28;20199;-72
2023/08/14 06:31:57;;;;;;;3.73;2.83;;;;;;;-145.14;100.00;70583.66;5009757;28;20192;-72
2023/08/14 06:34:23;;;;;;;4.10;2.60;;;;;;;-145.14;100.00;70583.66;5011287;28;20530;-72
2023/08/14 06:36:48;;;;;;;3.93;2.43;;;;;;;-145.14;100.00;70583.66;5008920;28;20488;-72
2023/08/14 06:39:14;;;;;;;3.63;1.97;;;;;;;-145.14;100.00;70583.66;5012050;28;20243;-72
2023/08/14 06:41:39;;;;;;;4.27;2.17;;;;;;;-145.14;100.00;70583.66;5011063;28;21086;-72
2023/08/14 06:44:08;;;;;;;7.03;2.20;;;;;;;-145.14;100.00;70583.66;5009936;28;20993;-72
2023/08/14 06:46:33;;;;;;;6.23;2.47;;;;;;;-145.14;100.00;70583.66;5014265;28;20209;-73
2023/08/14 06:48:58;;;;;;;6.50;3.70;;;;;;;-145.14;100.00;70583.66;5015191;28;21393;-72
2023/08/14 06:51:24;;;;;;;5.50;2.77;;;;;;;-145.14;100.00;70583.66;5013397;28;20657;-73
2023/08/14 06:53:49;;;;;;;3.33;1.83;;;;;;;-145.14;100.00;70583.66;5011441;28;20243;-73
2023/08/14 06:56:15;;;;;;;3.07;2.03;;;;;;;-145.14;100.00;70583.66;5012324;28;20584;-73
2023/08/14 06:58:40;;;;;;;3.40;2.07;;;;;;;-145.14;100.00;70583.66;5010490;28;20177;-73
2023/08/14 07:01:06;;;;;;;4.43;2.60;;;;;;;-145.14;100.00;70583.66;5010603;28;20200;-73
2023/08/14 07:03:32;;;;;;;5.15;2.00;;;;;;;-145.14;100.00;70583.66;5011951;28;20192;-73
2023/08/14 07:05:58;;;;;;;3.53;2.13;;;;;;;-145.14;100.00;70583.66;5011922;28;20439;-73
2023/08/14 07:08:24;;;;;;;3.93;2.20;;;;;;;-145.14;100.00;70583.66;5007975;28;20219;-73
2023/08/14 07:10:50;;;;;;;5.23;2.47;;;;;;;-145.14;100.00;70583.66;5011801;28;20662;-73
2023/08/14 07:13:15;;;;;;;3.70;2.47;;;;;;;-145.14;100.00;70583.66;5014867;28;20427;-73
2023/08/14 07:15:41;;;;;;;6.17;3.13;;;;;;;-145.14;100.00;70583.66;5011818;28;20440;-73
2023/08/14 07:18:06;;;;;;;4.13;2.20;;;;;;;-145.14;100.00;70583.66;5013764;28;20232;-73
2023/08/14 07:20:32;;;;;;;4.43;2.40;;;;;;;-145.14;100.00;70583.66;5012242;28;20189;-73
2023/08/14 07:22:57;;;;;;;5.07;2.60;;;;;;;-145.14;100.00;70583.66;5021319;28;20181;-73
2023/08/14 07:25:24;;;;;;;6.57;2.67;;;;;;;-145.14;100.00;70583.66;5010102;28;20189;-73
2023/08/14 07:27:49;;;;;;;3.87;2.70;;;;;;;-145.14;100.00;70583.66;5013742;28;20295;-73
2023/08/14 07:30:14;;;;;;;6.43;3.07;;;;;;;-145.14;100.00;70583.66;5010565;28;20440;-74
2023/08/14 07:32:40;;;;;;;4.27;1.80;;;;;;;-145.14;100.00;70583.66;5009619;28;20192;-73
2023/08/14 07:35:06;;;;;;;6.27;2.30;;;;;;;-145.14;100.00;70583.66;5008897;28;20192;-73
2023/08/14 07:37:32;;;;;;;4.00;2.77;;;;;;;-145.14;100.00;70583.66;5010574;28;20291;-73
2023/08/14 07:39:57;;;;;;;3.93;2.10;;;;;;;-145.14;100.00;70583.66;5011433;28;20192;-73
2023/08/14 07:42:22;;;;;;;8.60;2.60;;;;;;;-145.14;100.00;70583.66;5009849;28;20662;-73
2023/08/14 07:44:48;;;;;;;4.93;2.13;;;;;;;-145.14;100.00;70583.66;5011697;28;20184;-73
2023/08/14 07:47:13;;;;;;;5.63;2.07;;;;;;;-145.14;100.00;70583.66;5007306;28;20299;-73
2023/08/14 07:49:39;;;;;;;6.10;2.63;;;;;;;-145.14;100.00;70583.66;5011669;28;20789;-73
2023/08/14 07:52:05;;;;;;;4.33;1.73;;;;;;;-145.14;100.00;70583.66;5009825;28;22086;-73
2023/08/14 07:54:31;;;;;;;5.23;2.60;;;;;;;-145.14;100.00;70583.66;5010808;28;21238;-73
2023/08/14 07:56:57;;;;;;;6.10;2.20;;;;;;;-145.14;100.00;70583.66;5009405;28;20575;-72
2023/08/14 07:59:22;;;;;;;3.70;2.20;;;;;;;-145.14;100.00;70583.66;5012516;28;20180;-72
2023/08/14 08:01:49;;;;;;;7.77;1.93;;;;;;;-145.14;100.00;70583.66;5011489;28;20187;-72
2023/08/14 08:04:14;;;;;;;4.37;1.80;;;;;;;-145.14;100.00;70583.66;5010377;28;20258;-73
2023/08/14 08:06:40;;;;;;;4.10;1.67;;;;;;;-145.14;100.00;70583.66;5010741;28;20482;-72
2023/08/14 08:09:07;;;;;;;3.63;1.57;;;;;;;-145.14;100.00;70583.66;5009983;28;20220;-73
2023/08/14 08:11:33;;;;;;;2.73;1.40;;;;;;;-145.14;100.00;70583.66;5005903;28;20192;-73
2023/08/14 08:13:59;;;;;;;4.87;1.57;;;;;;;-145.14;100.00;70583.66;5011307;28;20967;-73
2023/08/14 08:16:25;;;;;;;3.93;2.10;;;;;;;-145.14;100.00;70583.66;5011784;28;20229;-73
2023/08/14 08:18:50;;;;;;;5.13;1.50;;;;;;;-145.14;100.00;70583.66;5012607;28;20440;-73
2023/08/14 08:21:16;;;;;;;4.13;1.90;;;;;;;-145.14;100.00;70583.66;5014363;28;20447;-73
2023/08/14 08:23:41;;;;;;;2.90;1.10;;;;;;;-145.14;100.00;70583.66;5013166;28;20196;-73
2023/08/14 08:26:06;;;;;;;3.07;1.40;;;;;;;-145.14;100.00;70583.66;5008666;28;20272;-72
2023/08/14 08:28:32;;;;;;;4.63;1.90;;;;;;;-145.14;100.00;70583.66;5008640;28;20262;-73
2023/08/14 08:30:58;;;;;;;3.30;1.77;;;;;;;-145.14;100.00;70583.66;5010627;28;20565;-72
2023/08/14 08:33:23;;;;;;;3.40;1.20;;;;;;;-145.14;100.00;70583.66;5019862;28;20254;-73
2023/08/14 08:35:49;;;;;;;4.13;1.30;;;;;;;-145.14;100.00;70583.66;5008945;28;20447;-73
2023/08/14 08:38:14;;;;;;;3.60;1.43;;;;;;;-145.14;100.00;70583.66;5010452;28;20215;-73
2023/08/14 08:40:47;;;;;;;5.20;1.77;;;;;;;-145.14;100.00;70583.66;5008042;28;20189;-73
2023/08/14 08:43:13;;;;;;;4.60;1.50;;;;;;;-145.14;100.00;70583.66;5014416;28;20590;-73
2023/08/14 08:45:45;;;;;;;4.97;1.80;;;;;;;-145.14;100.00;70583.66;5008249;28;20916;-72
2023/08/14 08:48:13;;;;;;;4.47;1.80;;;;;;;-145.14;100.00;70583.66;5009227;28;20468;-72
2023/08/14 08:50:39;;;;;;;6.00;1.60;;;;;;;-145.14;100.00;70583.66;5009486;28;20428;-72
2023/08/14 08:53:05;;;;;;;5.73;1.60;;;;;;;-145.14;100.00;70583.66;5008823;28;20965;-72
2023/08/14 08:55:30;;;;;;;4.57;1.70;;;;;;;-145.14;100.00;70583.66;5005407;28;20220;-72
2023/08/14 08:57:57;;;;;;;7.27;1.90;;;;;;;-145.14;100.00;70583.66;5002441;28;20687;-72
2023/08/14 09:00:23;;;;;;;5.03;2.30;;;;;;;-145.14;100.00;70583.66;5018280;28;20230;-72
2023/08/14 09:02:48;;;;;;;4.37;1.70;;;;;;;-145.14;100.00;70583.66;5010092;28;20865;-72
2023/08/14 09:05:14;;;;;;;4.87;1.63;;;;;;;-145.14;100.00;70583.66;5010612;28;20191;-72
2023/08/14 09:07:39;;;;;;;3.23;1.50;;;;;;;-145.14;100.00;70583.66;5010894;28;22285;-72
2023/08/14 09:10:05;;;;;;;4.70;2.03;;;;;;;-145.14;100.00;70583.66;5009995;28;20281;-72
2023/08/14 09:12:31;;;;;;;4.67;1.80;;;;;;;-145.14;100.00;70583.66;5009385;28;20565;-72
2023/08/14 09:15:09;;;;;;;3.70;1.90;;;;;;;-145.14;100.00;70583.66;5010341;28;20193;-72
2023/08/14 09:17:35;;;;;;;4.90;1.80;;;;;;;-145.14;100.00;70583.66;5006201;28;21759;-73
2023/08/14 09:20:01;;;;;;;5.07;1.83;;;;;;;-145.14;100.00;70583.66;5009600;28;20446;-72
2023/08/14 09:22:27;;;;;;;3.93;1.57;;;;;;;-145.14;100.00;70583.66;5008819;28;20471;-72
2023/08/14 09:24:56;;;;;;;4.27;1.83;;;;;;;-145.14;100.00;70583.66;5008619;28;20436;-72
2023/08/14 09:27:22;;;;;;;3.00;1.30;;;;;;;-145.14;100.00;70583.66;5007678;28;20482;-72
2023/08/14 09:29:52;;;;;;;5.70;1.90;;;;;;;-145.14;100.00;70583.66;5007143;28;20450;-72
2023/08/14 09:32:22;;;;;;;7.70;1.80;;;;;;;-145.14;100.00;70583.66;5008380;28;20446;-72
2023/08/14 09:34:47;;;;;;;3.27;1.50;;;;;;;-145.14;100.00;70583.66;5010447;28;20470;-72
2023/08/14 09:37:13;;;;;;;6.60;2.03;;;;;;;-145.14;100.00;70583.66;5005636;28;20479;-72
2023/08/14 09:39:38;;;;;;;6.27;1.90;;;;;;;-145.14;100.00;70583.66;5009901;28;20185;-72
2023/08/14 09:42:04;;;;;;;4.53;1.50;;;;;;;-145.14;100.00;70583.66;5007474;28;20242;-72
2023/08/14 09:44:29;;;;;;;3.80;1.30;;;;;;;-145.14;100.00;70583.66;5010703;28;20668;-72
2023/08/14 09:46:59;;;;;;;2.60;1.50;;;;;;;-145.14;100.00;70583.66;5008074;28;20308;-73
2023/08/14 09:49:27;;;;;;;3.53;1.40;;;;;;;-145.14;100.00;70583.66;5008450;28;20307;-73
2023/08/14 09:51:56;;;;;;;3.60;1.70;;;;;;;-145.14;100.00;70583.66;5007131;28;21017;-73
2023/08/14 09:54:34;;;;;;;6.17;2.10;;;;;;;-145.14;100.00;70583.66;5007259;28;21351;-72
2023/08/14 09:57:03;;;;;;;4.93;1.53;;;;;;;-145.14;100.00;70583.66;5010158;28;20467;-72
2023/08/14 09:59:28;;;;;;;2.70;1.53;;;;;;;-145.14;100.00;70583.66;5014259;28;20920;-71
2023/08/14 10:01:58;;;;;;;5.97;2.10;;;;;;;-145.14;100.00;70583.66;5014259;28;20430;-72
2023/08/14 10:04:25;;;;;;;5.33;1.90;;;;;;;-145.14;100.00;70583.66;5014782;28;20188;-72
2023/08/14 10:06:52;;;;;;;3.30;1.60;;;;;;;-145.14;100.00;70583.66;5028111;28;20550;-72
2023/08/14 10:09:22;;;;;;;4.07;1.77;;;;;;;-145.14;100.00;70583.66;5016288;28;20558;-72
2023/08/14 10:11:48;;;;;;;6.23;2.73;;;;;;;-145.14;100.00;70583.66;5020283;28;20428;-71
2023/08/14 10:14:19;;;;;;;3.73;1.60;;;;;;;-145.14;100.00;70583.66;5015909;28;20437;-71
2023/08/14 10:16:48;;;;;;;4.70;1.97;;;;;;;-145.14;100.00;70583.66;5022949;28;20502;-71
2023/08/14 10:19:16;;;;;;;3.93;2.20;;;;;;;-145.14;100.00;70583.66;5014388;28;20411;-72
2023/08/14 10:21:43;;;;;;;5.67;2.10;;;;;;;-145.14;100.00;70583.66;5021000;28;20442;-71
2023/08/14 10:24:11;;;;;;;3.93;1.63;;;;;;;-145.14;100.00;70583.66;5011169;28;20476;-73
2023/08/14 10:26:37;;;;;;;5.00;2.57;;;;;;;-145.14;100.00;70583.66;5011187;28;21047;-71
2023/08/14 10:29:03;;;;;;;4.57;2.47;;;;;;;-145.14;100.00;70583.66;5009834;28;20513;-72
2023/08/14 10:31:30;;;;;;;5.33;2.00;;;;;;;-145.14;100.00;70583.66;5009832;28;20205;-72
2023/08/14 10:34:00;;;;;;;4.67;1.50;;;;;;;-145.14;100.00;70583.66;5010924;28;20444;-71
2023/08/14 10:36:27;;;;;;;5.20;1.73;;;;;;;-145.14;100.00;70583.66;5009249;28;22305;-72
2023/08/14 10:38:53;;;;;;;3.07;1.40;;;;;;;-145.14;100.00;70583.66;5021745;28;20455;-71
2023/08/14 10:41:18;;;;;;;5.17;2.00;;;;;;;-145.14;100.00;70583.66;5020684;28;20439;-72
2023/08/14 10:43:49;;;;;;;4.80;1.60;;;;;;;-145.14;100.00;70583.66;5010500;28;20303;-73
2023/08/14 10:46:15;;;;;;;2.73;1.60;;;;;;;-145.14;100.00;70583.66;5017540;28;20239;-72
2023/08/14 10:48:43;;;;;;;5.27;1.90;;;;;;;-145.14;100.00;70583.66;5009040;28;20474;-72
2023/08/14 10:51:09;;;;;;;3.13;1.50;;;;;;;-145.14;100.00;70583.66;5010031;28;20440;-72
2023/08/14 10:53:36;;;;;;;2.60;1.20;;;;;;;-145.14;100.00;70583.66;5014654;28;20471;-72
2023/08/14 10:56:04;;;;;;;5.10;2.00;;;;;;;-145.14;100.00;70583.66;5015071;28;20454;-72
2023/08/14 10:58:35;;;;;;;4.00;1.50;;;;;;;-145.14;100.00;70583.66;5013640;28;20481;-71
2023/08/14 11:01:06;;;;;;;5.63;1.50;;;;;;;-145.14;100.00;70583.66;5013780;28;20427;-72
2023/08/14 11:03:33;;;;;;;3.60;1.50;;;;;;;-145.14;100.00;70583.66;5022305;28;20838;-73
2023/08/14 11:05:59;;;;;;;3.37;1.30;;;;;;;-145.14;100.00;70583.66;5012131;28;20427;-72